EHDV

D15-fa-1 Sea

D15-fa-1 Sea, The Netherlands
METAR EHDV 170155Z AUTO 31015KT 9999 NSC 06/02 Q1018 W///H///
Observed Flight Rules
Dec-17 @ 01:55 UTC (26 minutes ago) Visual Flight Rules
Wind Visibility Clouds
310° at 15 knots 10,000+ meters
  • Clear skies
Temperatures Readings
Current 6°C / 43°F
Dewpoint 2°C / 36°F
Humidity 76%
Altimeter 30.06" Hg
Pressure 1018 hPa
Elevation 50
METAR EHDV 170155Z AUTO 31015KT 9999 NSC 06/02 Q1018 W///H///
Observed Flight Rules
Dec-17 @ 01:55 UTC
(26 minutes ago)
VFR
Wind Visibility
310° at 15 knots 10,000+ meters
Clouds
  • Clear skies
Temperature Dewpoint
6°C / 43°F 2°C / 36°F
Humidity Altimeter Pressure
76% 30.06" Hg 1018 hPa